JOU OUVE 2019 le 24/11/2019

Recherche par Dossard : par Nom : par Club :

Place Dossard Nom Prenom Cat. Pl. Cat. Temps Club Sexe
1 2459 EDGAR MARBEQ SE 1 00:15:06 TIGER TEAM 972 M
2 2681 ROSALIE LUCAS SE 2 00:15:07 GOOD LUCK ATHLETISME M
3 2471 RETORY ISAAC ES 1 00:15:16 TIGER TEAM 972 M
4 2535 RUNDSTADLER KEVIN SE 3 00:15:16 GOLDEN STAR M
5 2556 JEAN ELIE GEORGES ES 2 00:15:35 MAIRIE SPORTIVE M
6 3081 SAYERS JASON M2 1 00:15:37 GOLDEN STAR M
7 2849 DILO YANN JU 1 00:16:17 ASCOIA M
8 2623 LOUIS-MONDESIR YANJIE JU 2 00:16:17 M
9 2516 TROMPETTE PASCAL SE 4 00:16:19 GOLDEN STAR M
10 2517 TROMPETTE FREDERIC SE 5 00:16:24 GOLDEN STAR M
11 3026 MOESTA YONA ES 3 00:16:28 M
12 3069 THOMAS ANDRE SE 6 00:16:37 MAIRIE SPORTIVE M
13 2319 ARMEDE NOAH CA 1 00:16:39 ASCO INTER ATLAS M
14 2502 JEANNOT JEAN-ETIENNE M4 1 00:16:39 GOLDEN STAR M
15 2350 RALECHE PATRICK M2 2 00:16:46 LA RENOVATION DE AUGRAIN M
16 2341 FONTAINE LIONEL JU 3 00:16:49 FFA M
17 3089 MARCENY MERICK ES 4 00:16:52 GOLDEN LION ST-JOSEPH M
18 2769 BELLEMARE BRUNO M3 1 00:16:59 TEAM EDF MATINIK M
19 2058 FONDS REGGIE CA 2 00:17:01 M
20 3072 ANAIS CYNTHIA SE 1 00:17:04 MAIRIE SPORTIVE F
21 2558 LINEL LAURENT SE 7 00:17:10 MAIRIE SPORTIVE M
22 2557 BOLOTTE FRANCOIS M0 1 00:17:13 MAIRIE SPORTIVE M
23 2611 BLACODON THIERRY M2 3 00:17:20 ASC POLICE M
24 2654 CONCONNE CONCONNE JU 4 00:17:23 JC 231 M
25 2708 ZACHARIE CHARLES-DENIS M3 2 00:17:23 CLUB COLONIAL M
26 2353 POMONEL THOMAS JU 5 00:17:32 MADINIA BIKERS M
27 2764 MILBEO PIERRE MI 1 00:17:32 KAWANN TRIATHLON M
28 2201 CORDEMY MATHIEU M1 1 00:17:36 M
29 2850 RAGOT OLIVIER M0 2 00:17:42 ASC POLICE M
30 2034 JESOPHE SANCHEZ MEHDI DORIAN CA 3 00:17:42 M
31 2532 MATHIEUX JUSTINE SE 2 00:17:42 GOLDEN STAR F
32 2970 RESIDANT JOSE M4 2 00:17:43 VAC M
33 2971 GUIRAUD NOAH CA 4 00:17:44 VAC M
34 2468 LAROUE ANTHONY JU 6 00:17:47 TIGER TEAM 972 M
35 2469 MARIE-JOSEPH DAVID M0 3 00:17:48 TIGER TEAM 972 M
36 3021 LANDRY OLIVIER M3 3 00:18:02 M
37 2075 CHRISTINE JEAN-CHARLES M2 4 00:18:05 M
38 2612 PAUL-JOSEPH RUBEN M2 5 00:18:19 ASC POLICE M
39 2536 SURATTEAU ALEXANDRE M1 2 00:18:22 ASCO INTER ATLAS M
40 481 TRESFIELD JEAN-CHARLES M0 4 00:18:41 M
41 2461 MONTLOUIS-CALIXTE OLIVIER M1 3 00:18:44 TIGER TEAM 972 M
42 3022 DVIDAS PATRICK M3 4 00:18:46 M
43 2555 EMELIE ROSELINE M0 1 00:18:55 MAIRIE SPORTIVE F
44 2515 AMPHARES YANNIS M2 6 00:19:36 LA POSTE M
45 2518 GISCON ANDY JU 7 00:19:47 GOLDEN STAR ATHL TISME M
46 2405 COUDRAY ALEXANDRINE SE 3 00:19:51 GOLDEN STAR F
47 2338 GOLBRY BRUNO M3 5 00:19:53 CSLG RUN972 M
48 2687 CANOVA ALEX M2 7 00:19:59 M
49 2798 GERMANY FLORIAN JU 8 00:20:01 LES BAROUDEURS MARTINIQUE M
50 2733 DEROND CHARLES M2 8 00:20:06 CLUB PELEEN M
51 2848 BOISSON GABRIELLE JU 1 00:20:06 ASCOIA F
52 2837 MAXIMIN NADINE M2 1 00:20:06 F
53 2891 GELIE LIONEL SE 8 00:20:14 M
54 2949 NERET JOEL M3 6 00:20:16 M
55 2577 TOUCHE BENOIT M4 3 00:20:22 M
56 2250 AUTEVILLE ALBAN-KEVIN M0 5 00:20:27 M
57 2018 CHARLES-NICOLAS GILLES M1 4 00:20:27 M
58 2629 ASSELIN DE BEAUVILLE RICHARD M2 9 00:20:31 TEAM MADINFORM M
59 2554 PULVAL DADY THIERRY M3 7 00:20:36 MAIRIE SPORTIVE M
60 2415 VIGERAL JULIEN M0 6 00:20:39 GOLDEN STAR M
61 2181 SAINTE- MARIE AMEDEE M3 8 00:20:39 M
62 2454 VALDOR BRICE M1 5 00:20:41 TEAM LAM-TRAIL972 / GFA M
63 3064 BAROUT KEVIN BRUNO JU 9 00:20:51 M
64 2540 LONY ALPHONSE SE 9 00:20:51 GOLDEN STAR M
65 2805 OSEI LINDSAY SE 10 00:20:53 M
66 2972 JOSEPH JEAN PHILIPPE M2 10 00:20:54 VAC M
67 3046 PERMENGANT JEAN-LOUIS M5 1 00:20:55 M
68 2294 CHAPIN DESIRE M6 1 00:20:57 AIGLON / ASRFO M
69 2600 SIDNEY JEAN MARC M3 9 00:20:58 AMCF M
70 2296 MARIECATHERINE TEDDY M2 11 00:21:01 AIGLON DU LAMENTIN M
71 2539 THEODOSE ELEONORE M0 2 00:21:02 GOLDEN STAR F
72 3020 ALBENY JEAN CLAUDE M4 4 00:21:07 M
73 2545 BELONY JEANINE M0 3 00:21:12 MAIRIE SPORTIVE F
74 2665 BECHET EDOUARD M4 5 00:21:13 M
75 2839 SMAILI STEPHANIE M2 2 00:21:14 F
76 2406 CROTET MATHIEU M0 7 00:21:19 GOLDENSTAR M
77 2478 ELIACE JONATHAN CA 5 00:21:20 TIGER TEAM 972 M
78 2298 LUCE JOSEPH M2 12 00:21:25 AIGLON DU LAMENTIN M
79 2411 YANG-TING GABY M4 6 00:21:26 GOLDEN STAR M
80 2878 RESIDANT LEONCE M5 2 00:21:26 M
81 2670 HUYGHUES-BEAUFOND CHRISTOPHER CA 6 00:21:26 M
82 2559 CLOTAIL JEAN-LUC M3 10 00:21:30 US ROBERT M
83 2617 ZIZI ALEX MATHIAS M4 1 00:21:32 POLICE SPORTIVE F
84 3067 BEAUSOLEIL GREGORY SE 11 00:21:34 M
85 2795 POPOVIC THEO JU 10 00:21:34 LES BAROUDEURS MARTINIQUE M
86 2408 GELAN GILLES SE 12 00:21:39 M
87 2321 VELMONT JULIEN M5 3 00:21:39 ASPTT MARTINIQUE M
88 2328 BARIL LUC M5 4 00:21:40 CGOSH M
89 2974 PLATON FRED M3 11 00:21:41 VAC M
90 2111 BERGOT THOMAS MI 2 00:21:41 M
91 2069 BERGOT AUGUSTIN JU 11 00:21:41 M
92 2462 FORTUNE ISAAC SE 13 00:21:43 TIGER TEAM 972 M
93 2095 MARSALLON EDDY M3 12 00:21:45 M
94 2896 RESIDANT ANNIELLE CA 1 00:21:52 F
95 2973 RIBAC JEAN RENE M2 13 00:21:52 VAC M
96 2062 PAQUET JACQUES M4 7 00:21:57 M
97 2820 FRANCOIS_ HAUGRIN CHRISTOPHE M4 8 00:21:59 DIGUE FOYER RURAL M
98 3087 RAUMAVILLE BEVERLY ES 1 00:22:03 MARIE SPORTIVE F
99 2157 VARLIN RAPHAËL RAPHAËL M4 9 00:22:10 M
100 2325 ERIN RENE JEAN-MARC M3 13 00:22:15 CG OEUVRES SOCIALES HOSPITALIERES M
101 3070 CHARPENTIER LOUIS M5 5 00:22:16 MAIRIE SPORTIVE M
102 2477 GROSOL YVAN M1 6 00:22:24 TIGER TEAM 972 M
103 2326 FORDANT NICOLAS M1 7 00:22:25 CG OEUVRES SOCIALES HOSPITALIERES M
104 2903 CHENY GEORGES-HENRI JU 12 00:22:25 M
105 2044 PRUVOST EWAN CA 7 00:22:34 M
106 2342 KADI ANDRE M6 2 00:22:40 G.A.B.S M
107 2155 DUILLET MICHEL M4 10 00:22:42 M
108 2796 DOYEN THIERRY ROGER M2 14 00:22:44 LES BAROUDEURS MARTINIQUE M
109 3075 DUBOYER PATRICK M4 11 00:22:48 CHUM CLARAC M
110 2514 CAROUJEL CLAUDE M5 6 00:22:50 LA POSTE M
111 2953 SAINTE-ROSE-ROSEMOND BASTIEN JU 13 00:22:51 M
112 2189 BAZABAS JEAN-HUGUES M3 14 00:22:52 M
113 2505 DELOGE VINCENT SE 14 00:22:52 M
114 2488 ELISABETH KAREN SE 4 00:22:53 GOLDEN STAR F
115 2245 PAVILLA PATRICIA M3 1 00:22:54 F
116 2811 DA SILVA MANUEL M2 15 00:22:55 M
117 2159 BISSO BIKORO EDNA SE 5 00:23:00 F
118 2673 FREDERIC RITA CA 2 00:23:03 GOLDEN LION ST-JOSEPH F
119 3066 BEAUSOLEIL ALEX M5 7 00:23:04 M
120 2467 LAMOTTE KIERAN JU 14 00:23:12 TIGER TEAM 972 M
121 2446 LUCIDARME ERIC M3 15 00:23:14 CLUB MANIKOU ORGANISATIONS M
122 2691 MARIE-SAINTE PATRICK M3 16 00:23:14 M
123 3018 FELICITE SABAS ERICK M5 8 00:23:16 M
124 2272 JEAN BAPTISTE SIMONE PASCAL M4 12 00:23:24 M
125 2029 CHARET ERIC M3 17 00:23:26 M
126 2830 ENNOYOTIE JOSUE CA 8 00:23:26 M
127 2186 TELCIDE CHRISTIAN M6 3 00:23:29 M
128 2639 PORRY CENZANO GABRIEL JU 15 00:23:31 M
129 2599 LIMERY LAURA-LYNN ES 2 00:23:32 F
130 2070 TORRES LUKAS JU 16 00:23:33 M
131 2682 YALA TH O CA 9 00:23:37 M
132 2106 MAS ALAIN M5 9 00:23:37 M
133 2357 JARRIN VICTORIEN M8 1 00:23:39 OMASS M
134 2460 BRULU JEAN-MICHEL M3 18 00:23:40 TIGER TEAM 972 M
135 2266 HEJOAKA FRANCOISE M3 2 00:23:43 F
136 2754 MARTIAL ROBERT M6 4 00:23:43 M
137 3042 BRUTE JOEL M2 16 00:23:44 M
138 3027 FORDANT DANIEL M5 10 00:23:45 M
139 2259 CHARLES DONATIEN FLORA M4 2 00:23:47 AMCF F
140 2323 BEAUDREUIL NADINE M0 4 00:23:48 CG OEUVRES SOCIALES HOSPITALIERES F
141 2498 EUGENIE PATRICK M4 13 00:23:51 AIGLON DU LAMENTIN M
142 2616 POTHIER ARIANE M5 1 00:23:52 F
143 3039 JALTA LUDGI SE 15 00:23:52 LA SARA M
144 2713 LECLOU JULIETTE ES 3 00:23:55 F
145 2231 CHAMLONG GIOVANNI SE 16 00:23:55 M
146 2092 GORAM MAXIME MI 3 00:23:57 M
147 2093 GORAM BRUNO M2 17 00:23:57 M
148 2399 FONTAINE FRANTZ M4 14 00:23:58 TCHIMBE RAID M
149 2662 ANGAMA MAX M2 18 00:23:58 M
150 2293 PAMPHILE MATHIS JU 17 00:23:59 AIGLON M
151 2950 ARCADE JEAN PHILIPPE M4 15 00:23:59 M
152 2800 GUSTO PHILIPPE M3 19 00:24:00 LES BAROUDEURS MARTINIQUE M
153 2210 KATHALYN PAROT M1 1 00:24:03 F
154 2302 BATTAGLIA FATIMA M3 3 00:24:03 AMCF F
155 2645 MELICINE YOURI SE 17 00:24:07 M
156 2522 VERONIQUE STEPHANE SE 18 00:24:08 LA POSTE M
157 2728 CHARODIN MICHEL M2 19 00:24:10 M
158 2614 ROCHE STEPHANIE SE 6 00:24:15 GOLDEN STAR F
159 2672 POTIRON JOSEPH M1 8 00:24:20 M
160 2890 CABIT SEBASTIEN SE 19 00:24:22 M
161 2565 MACED SYLVIANE M4 3 00:24:24 TEAM MADINFORM F
162 2651 MAXIMIN VICTOR MICHEL M5 11 00:24:24 M
163 2066 JOVINAC ALEX M5 12 00:24:24 M
164 2567 JAREL LAURENCE M2 3 00:24:24 TEAM MADINFORM F
165 2603 LEBOUC MAEVA SE 7 00:24:25 ASC POLICE F
166 2606 BERARD TONY M3 20 00:24:25 ASC POLICE M
167 2507 PEUX BEATRICE M1 2 00:24:27 F
168 2688 RIOUX PHILIPPE M4 16 00:24:28 KAWANN TRIATHLON M
169 2246 JOSEPH-BONIFACE EDDY M1 9 00:24:32 M
170 2636 IVALDI RONALD M2 20 00:24:36 M
171 3047 AW CHEIKH M0 8 00:24:37 M
172 2094 BERNARD PASCAL M3 21 00:24:40 M
173 2877 MERCAN GUY M5 13 00:24:41 M
174 2465 LINERE MARIE-YVONNE M2 4 00:24:44 TIGER TEAM 972 F
175 2360 MAKAYA JEAN-CLAUDE M6 5 00:24:44 OMASS M
176 2300 FONTEAU YDA M1 3 00:24:45 AM DES COUREURS DE FOND F
177 2101 JEAN-JOSEPH ZOYA JU 2 00:24:49 F
178 2142 PRIVAT MICHEL M6 6 00:24:49 M
179 3090 RAPHA DANY M5 2 00:24:50 MAIRIE SPORTIVE F
180 2185 LOWENSKI MARYSE M4 4 00:24:51 F
181 2716 LIN LAURENT-CHARLES M0 9 00:24:55 M
182 3011 MICELIN SONIA M3 4 00:24:59 F
183 2899 TOUYA PILON SABRINA M2 5 00:25:01 F
184 3078 GOVINDOORAZOO CHANTAL M4 5 00:25:01 F
185 2497 LESMOND JOCELYN M4 17 00:25:02 AIGLON DU LAMENTIN M
186 2458 JOSEPH ENDA M1 4 00:25:02 TIGER TEAM 972 F
187 2188 JOLY EDMONDE M3 5 00:25:03 F
188 2100 HENRY JOHN SE 20 00:25:04 M
189 726 DUCHANT FREDDY M4 18 00:25:07 JEUNESSE ATHLETIQUE MOULIENNE M
190 2320 RUBAN JEAN M6 7 00:25:09 ASPTT MARTINIQUE M
191 2129 AUDEL JEAN_MARC M5 14 00:25:10 M
192 2472 RINTO CYNTHIA ES 4 00:25:10 TIGER TEAM 972 F
193 2775 YOUNES DANIELLE M2 6 00:25:19 F
194 2429 DUFEAL WILLY M3 22 00:25:20 M
195 2781 MOUTAMALLE LISE M1 5 00:25:21 F
196 2571 ADEE TANIA M1 6 00:25:22 TEAM MADINFORM F
197 2885 CHRISTOPHE ERWAN CA 10 00:25:24 M
198 2169 MARIE-LOUISE OLIVIER M2 21 00:25:26 M
199 2473 RINTO BEATRICE M1 7 00:25:27 TIGER TEAM 972 F
200 2418 HOULLIER DANNY M1 10 00:25:31 LA POSTE M
201 2947 JOVINE LAURE M1 8 00:25:33 F
202 2604 GUITTEAUD KARINE M2 7 00:25:33 F
203 2730 MARRAUD DES GROTTES MARIE PASCALE M1 9 00:25:33 F
204 2767 CONSTANCE GILL M2 22 00:25:40 M
205 2123 LE BRAZIDEC MARIE CHRISTINE M5 3 00:25:41 F
206 2501 GLISSANT PATRICIA SE 8 00:25:43 AIGLON DU LAMENTIN F
207 2340 FELICIE FLAVIEN M5 15 00:25:45 ECLIPSE M
208 2051 TOUSSAY FRANCOIS M5 16 00:25:47 M
209 2523 LABONNE JEAN PHILIPPE M1 11 00:25:47 LA POSTE M
210 2809 TRAMIS CHARLES M4 19 00:25:48 M
211 2500 RULLAUD ANNE M3 6 00:25:50 AIGLON DU LAMENTIN F
212 3008 JEAN-PIERRE FRED M3 23 00:25:50 M
213 2173 LEGLISE PIERRE-YVES M2 23 00:25:53 M
214 2746 GUILON MOISE M2 24 00:25:54 M
215 2251 POULIN HUGUES M4 20 00:25:54 M
216 2799 RENE-CORAIL RITA M2 8 00:25:55 LES BAROUDEURS MARTINIQUE F
217 2450 FAURIEUX YANNICK M5 17 00:25:57 TEAM LAM-TRAIL972 / GFA M
218 3035 POUSSIERO LIDIA M0 5 00:25:57 LA SARA F
219 2652 CRIQUET BRUNO M3 24 00:25:59 M
220 2295 PAMPHILE ALINE M3 7 00:25:59 AIGLON ATHLETISME F
221 2741 PETIOT MIREILLE M4 6 00:26:03 F
222 3019 DELIN JEAN-CLAUDE M6 8 00:26:05 M
223 2723 TIDAS MARIE-THERESE SE 9 00:26:06 CLUB COLONIAL F
224 2686 SMITE PATRICK M3 25 00:26:06 M
225 2466 SIBERAN AUDE JU 3 00:26:06 TIGER TEAM 972 F
226 2524 BERGOZ JEAN-LOUIS M3 26 00:26:07 LA POSTE M
227 2457 NGOLI LUCENDA SE 10 00:26:08 TIGER TEAM 972 F
228 2175 CAUPENNE THIERRY M2 25 00:26:11 M
229 2801 MARQUET MICKAËL-ELIOT CA 11 00:26:12 M
230 2610 THOMASI KARINE M2 9 00:26:13 F
231 2889 PIVERT FRED M3 27 00:26:17 M
232 2583 TAULIAUT GILDAS M1 10 00:26:17 F
233 2271 JANVIER ROGER M5 18 00:26:18 M
234 3031 VALLIE RODRIGUE M0 10 00:26:19 LA SARA M
235 2108 RIVOT MICHELE M0 6 00:26:20 F
236 2846 GRANGENOIS ROGER M6 9 00:26:21 ASCOIA M
237 2436 JEAN FRANÇOIS PHILIPPE ANDRE M1 12 00:26:22 M
238 2263 FLEURILIEN MARIE WADLY M1 11 00:26:23 BANAMART SAS F
239 2053 VIOD FLEUR JU 4 00:26:23 F
240 2241 SYMPHOR CEDRIC M1 13 00:26:24 M
241 2783 GOLVET NOEMIE SE 11 00:26:24 F
242 2252 KONDO ALEXANDRE SE 21 00:26:25 M
243 2605 FRIOLLIER CAMILLE ES 5 00:26:30 ASC POLICE F
244 2520 BUVAT DE VIRGINY ANGELIQUE SE 12 00:26:31 F
245 2127 PATOLE JESSICA M0 7 00:26:31 F
246 2637 VANITOU PATRICK M3 28 00:26:37 M
247 2954 NICOLAS FRANCETTE M4 7 00:26:38 F
248 2317 FILET FRANTZ M3 29 00:26:42 AMCF M
249 2412 LECHERTIER JACQUES M1 14 00:26:42 GOLDEN STAR M
250 2668 MONNERVILLE MAX M5 19 00:26:42 M
251 2276 SIDOINE ST PHANIE M0 8 00:26:43 F
252 2579 EUZEBE GREGORY SE 22 00:26:43 M
253 2608 SOLBIAC JEAN M6 10 00:26:45 ASC POLICE M
254 2552 FLORIAN JULES M5 20 00:26:49 MAIRIE SPORTIVE M
255 2329 GELLYNCK ALINE M0 9 00:26:50 CGOSH F
256 2710 MARIE SAINTE MARCEL M4 21 00:26:53 OSONS DECOUVRIR M
257 2301 LAURIER SUZETTE M5 4 00:26:53 AMCF F
258 2534 MAUBERT EDDY M2 26 00:26:54 M
259 2262 BERTHOD LAURENT M1 15 00:26:54 BANAMART SAS M
260 2198 OTHONY OLIVIER M2 27 00:26:56 M
261 3061 SAINVILLE LEOPOLDIE M6 11 00:27:00 M
262 2814 DABADIE-DE-LURBE MARIE-NELLY M2 10 00:27:02 SAM HORIZON 200 F
263 2395 RUBAL DAVID M1 16 00:27:02 SAM HORIZON 2000 M
264 2475 URITY CLARISSE M3 8 00:27:02 TIGER TEAM 972 F
265 2012 MITH PIERRE M4 22 00:27:06 M
266 2533 JEAN-GILLES HERV M2 28 00:27:06 M
267 2678 DULAS YVELISE M2 11 00:27:08 F
268 3004 BARIL GEORGES M3 30 00:27:11 M
269 2432 DILON NADINE M3 9 00:27:13 F
270 2171 HIEU STEVEN SE 23 00:27:13 M
271 2663 ANGAMA DAVY ES 5 00:27:14 M
272 2901 WASSELIN DELPHINE M2 12 00:27:14 F
273 2257 AUTEVILLE-LEGENDRI AMANDINE SE 13 00:27:15 F
274 2219 LAGUERRE MAUD M2 13 00:27:15 F
275 2419 AGLAE PHILIPPE M3 31 00:27:17 M
276 2772 SAUVEUR CATHERINE M3 10 00:27:19 F
277 2286 BEAUDREUIL CATHERINE SE 14 00:27:20 OMASS F
278 2675 RIOU SOPHIE M3 11 00:27:21 VAUCLIN ATHLETIC CLUB F
279 2122 POCHON MARC M6 12 00:27:22 M
280 2097 MARTINON SANDRA M2 14 00:27:23 F
281 2784 NEREE ENA M4 8 00:27:23 F
282 2022 RADIGUET S BASTIEN SE 24 00:27:25 M
283 2160 LOWENSKI XAVIER M2 29 00:27:26 M
284 2976 QUIATOL HUGUES M3 32 00:27:26 FOYAL CLUB HANDI SPORT M
285 2995 PETREMONT BRAHIM CA 12 00:27:26 FOYAL CLUB HANDI SPORT M
286 2213 BRELEUR JOSETTE M3 12 00:27:27 F
287 3001 DEGRAS MARIE-FRANCE M2 15 00:27:28 F
288 2187 VILLAGEOIS GRATIEN M5 21 00:27:28 M
289 2572 PIERRE LOUIS YVA SE 15 00:27:29 TEAM MADINFORM F
290 2883 THEOBALD SEVERINE M1 12 00:27:30 F
291 3083 FRANÇOIS LUBIN NICOLE M4 9 00:27:34 F
292 2206 PLUMBERT C DRIC SE 25 00:27:36 M
293 2573 THIMON ELZA M3 13 00:27:36 TEAM MADINFORM F
294 2400 TOUCHAIN ERWAN M0 11 00:27:37 TCHIMBE RAID M
295 2125 BERNARD ISABELLE M1 13 00:27:39 F
296 2221 VICAIRE LAURENT M3 33 00:27:40 M
297 3038 BRANCHE VICTOR M4 23 00:27:40 LA SARA M
298 2537 PERINA CLAUDIA M2 16 00:27:43 F
299 2876 AGLAE MAX M4 24 00:27:43 M
300 2499 DINGEVAL OLIVIER M0 12 00:27:46 AIGLON DU LAMENTIN M
301 2040 BURNER JEAN-PIERRE M5 22 00:27:47 M
302 2082 BILAS COPPET KATLEEN M1 14 00:27:51 F
303 2476 JEAN-LOUIS TRACY ES 6 00:27:51 TIGER TEAM 972 F
304 2722 BOURROUET LAURENCE M1 15 00:27:51 F
305 2493 SAINTPIERRE GENEVIČVE M3 14 00:27:56 GOLDEN STAR ATHL TISME F
306 2435 PINGRAY AURELIE SE 16 00:27:57 F
307 2742 BONTRAIN YVA M3 15 00:28:01 TEAM AKTIV GIRLS F
308 2248 VALERY RAPHAEL M1 17 00:28:03 M
309 3086 JAIKARAN STEEVE M1 18 00:28:03 M
310 2771 LAHOUSSAYE-DUVIGNY MARIETTA M1 16 00:28:05 F
311 2879 TEROSIER ROLAND M6 13 00:28:05 M
312 2445 CORBIN CATHERINE M3 16 00:28:07 CLUB MANIKOU ORGANISATIONS F
313 2447 RANSAU MARIE-CHRISTIANE M3 17 00:28:07 CLUB MANIKOU ORGANISATIONS F
314 2009 FELIXINE FREDERIC M3 34 00:28:07 M
315 2595 GEORGES GILLES M1 19 00:28:09 M
316 2810 FERRATY FELIX M4 25 00:28:10 M
317 2209 CARTON LAURA SE 17 00:28:11 F
318 2843 LARODE GEORGES MI 4 00:28:12 M
319 2336 CHERON ISABELLE M3 18 00:28:13 CHERON F
320 2596 DULYS SONIA M5 5 00:28:14 GOLDEN STAR F
321 2442 ELIZABETH CATHERINE M3 19 00:28:14 CLUB MANIKOU ORGANISATIONS F
322 2827 MONTEL DANIEL M4 26 00:28:15 M
323 2277 SIDOINE SYLVIA M5 6 00:28:15 F
324 2693 BOUTON IVELLE M0 10 00:28:15 F
325 2451 LOUIS MONTHIEUX ASTRID M2 17 00:28:20 TEAM LAM-TRAIL972 / GFA F
326 2141 GRAND ALAIN M4 27 00:28:21 M
327 2060 YOKESSA ERIC M4 28 00:28:21 M
328 2154 AUGUSTIN JEAN-MICHEL SE 26 00:28:22 M
329 2170 EUZET HAROLD SE 27 00:28:22 M
330 2750 GREGOIRE CHRISTINE M1 17 00:28:22 F
331 3034 PERRY LOIC M1 20 00:28:22 LA SARA M
332 2299 TELCIDE ARMANDE M6 1 00:28:26 AIGLON DU LAMENTIN F
333 2797 BAZIN SOPHIE M1 18 00:28:26 LES BAROUDEURS MARTINIQUE F
334 2444 GLORIANNE CATHERINE M3 20 00:28:30 CLUB MANIKOU ORGANISATIONS F
335 3050 MIREDIN JEAN MARC M3 35 00:28:31 M
336 2426 SAINT AIMČ JULIETTE M3 21 00:28:31 F
337 2551 HONORE EVELYNE M5 7 00:28:32 MAIRIE SPORTIVE F
338 2543 ANGEON GEORG M1 19 00:28:32 F
339 2413 ESHAK LILIAN SE 18 00:28:34 F
340 2487 ZALI ESTELLE M1 20 00:28:38 GOLDEN STAR F
341 2080 CARRIER VIRGINIE M4 10 00:28:38 F
342 2712 ATHANASE CHANTAL M4 11 00:28:41 F
343 2042 CAZENEUVE PHILIPPE M5 23 00:28:41 M
344 2985 CAGE CASIMIR M6 14 00:28:42 M
345 2409 PAIN COLETTE-JEANNE M5 8 00:28:42 GOLDEN STAR F
346 2324 CAPUT DENISE M3 22 00:28:45 CG OEUVRES SOCIALES HOSPITALIERES F
347 2832 CALMO EVANS MI 5 00:28:45 M
348 2355 SAINT PRIX MARIE JOSE M2 18 00:28:46 MADININA ATHLETISME F
349 2204 MIREDIN RONNY M3 36 00:28:46 M
350 2504 RIVIERE SARAH M0 11 00:28:48 F
351 2660 LAFONTAINE KARINE M2 19 00:28:53 F
352 3082 GARDAUD PHILIPPE M3 37 00:28:54 M
353 3030 CANGE YAQUIM CA 13 00:28:58 M
354 2345 ZOU REN E-LAURE M4 12 00:29:03 KALANS BEACH CLUB (KBC) F
355 2872 HARDOROCK IRENE M6 15 00:29:06 M
356 2425 SAXEMARD HUGUETTE M4 13 00:29:09 F
357 2207 LUCHEL PHILIPPE M5 24 00:29:09 M
358 3068 EMIRAT BRUNO M2 30 00:29:10 MAIRIE SPORTIVE M
359 3073 CLIO LIDIE M2 20 00:29:10 MAIRIE SPORTIVE F
360 2812 LASSOURCE CLAIRE SE 19 00:29:13 F
361 2260 MACARIE MIGUEL M5 25 00:29:15 KALANS BEACH CLUB M
362 2074 ALEXANDRE DAPHN JU 5 00:29:20 F
363 2626 CHANE FOC BRIGITTE M5 9 00:29:23 TEAM MADINFORM F
364 2149 ARMINJON CASSANDRE JU 6 00:29:23 F
365 2025 VILLARSIN DEBORAH SE 20 00:29:26 F
366 2130 ROCHER JEAN MICHEL M4 29 00:29:27 M
367 3084 FRANCOIS EUGENE WILLIAM M6 16 00:29:29 M
368 2234 LARCHER JOSE M5 26 00:29:30 M
369 2398 LANDRY LUCETTE M4 14 00:29:31 TCHIMBE RAID F
370 2344 WILFRED ROSE MARIE M5 10 00:29:32 INTERGENERATION RUNNERS F
371 2247 VALERY CHRISTINE M1 21 00:29:34 F
372 2981 HONORE ANTONNY JU 18 00:29:34 FOYAL CLUB HANDI SPORT M
373 2397 DAGOBERT RODRIGUE M2 31 00:29:34 TCHIMBE RAID M
374 2191 HOUDREVILLE GUY M7 1 00:29:36 M
375 2951 HARDOROCK NICOLE M5 11 00:29:37 F
376 2979 MONERVILLE CHARLES HENRY SE 28 00:29:38 FOYAL CLUB HANDI SPORT M
377 2427 ELISEE JOCELYNE M4 15 00:29:38 GOLDEN STAR F
378 2852 CAMBRAY KEREMA M2 21 00:29:38 F
379 2050 SAINT-ZEBY STELLA M0 12 00:29:39 F
380 2420 SONZOGNI ANAĎS M0 13 00:29:39 F
381 2347 SAINT-AIME CHRISTINE M4 16 00:29:43 KBC F
382 2905 JURIN LUC M6 17 00:29:43 M
383 2452 JALET JIMMY M2 32 00:29:48 TEAM LAM-TRAIL972 / GFA M
384 2453 PIAULT FRANCK M4 30 00:29:49 TEAM LAM-TRAIL972 / GFA M
385 2363 PELOPONESE JULIETTE M6 2 00:29:51 OMASS F
386 3029 CANGE JAMES M2 33 00:29:53 M
387 2680 VERT-PRE SYLVIA M4 17 00:29:54 F
388 2117 FANNIS BEATRICE M0 14 00:29:54 F
389 2116 CATHERINE CAROLE M0 15 00:29:54 F
390 3079 REMY ALEX M6 18 00:29:54 CGOSH M
391 2004 NOEMI SANDRINE M2 22 00:29:55 F
392 2854 VICTOIRE YVETTE M3 23 00:29:55 F
393 2352 MONROC MARIE-FRANCOISE M5 12 00:29:55 LES BAROUDEURS MARTINIQUE F
394 2593 JACARIA JULIE M0 16 00:29:58 TCHIMBE RAID F
395 2761 DE GENTILE OCTAVIE SE 21 00:29:59 F
396 2700 ROUSSEAU SANDIE SE 22 00:30:01 F
397 2333 MOSCOU LUCIENNE M3 24 00:30:02 CGOSH F
398 2508 ZAIRE PIERRE M6 19 00:30:02 M
399 2886 NUMERIC PATRICK M5 27 00:30:03 M
400 2114 DUFOND DORIS M1 22 00:30:04 F
401 2766 RISKWAIT CHRISTINE M0 17 00:30:05 F
402 2351 LEBLANC MORINIERE JADE JU 7 00:30:06 F
403 2182 MARIE-LUCE NADINE M4 18 00:30:07 F
404 2489 HOUVION ARNAUD M2 34 00:30:07 M
405 2047 NOPOLY CENDRINE SE 23 00:30:09 F
406 2348 FILIN PATRICIA M2 23 00:30:10 KBC F
407 2269 AMBROISINE BENJAMIN M10 1 00:30:15 M
408 2327 JEAN-BAPTISTE LUCETTE M4 19 00:30:15 CG OEUVRES SOCIALES HOSPITALIERES F
409 2618 GERMON LAURIE M0 18 00:30:15 GOLDEN STAR F
410 2428 TREHOREL SANDY M1 23 00:30:15 GOLDEN STAR F
411 2774 NINEL CHRISTELLE M1 24 00:30:16 F
412 2335 CHATOT-HENRY CAROLE M4 20 00:30:18 CHATOT-HENRY F
413 2656 ROSE DAVID M2 35 00:30:21 M
414 2233 SPERONEL GWENDOLINA M2 24 00:30:22 F
415 2449 GERNO VIVIANE M3 25 00:30:24 GOLDEN STAR F
416 2403 AGRICOLE FRED M4 31 00:30:24 TEAM LAM-TRAIL972 M
417 2902 BOURGADE ELSIE M3 26 00:30:28 F
418 2258 RENAR-LEGRAND MURIELLE M3 27 00:30:28 F
419 2782 CHARLERY SONIA M3 28 00:30:29 F
420 2785 SIVATTE JOHAN M0 13 00:30:29 M
421 2121 RAMANICH LUCE M4 21 00:30:32 F
422 2105 MAGELLAN KATIA M2 25 00:30:33 F
423 2151 SAINT-JUST ISABELLE M3 29 00:30:35 F
424 2894 KEITA-CAPITOLIN YASMINA M3 30 00:30:36 CDAD F
425 2948 THOMASI JOEL M4 32 00:30:37 MARIE SPORTIF M
426 2212 MONLOUIS-FELICITE MURIELLE M3 31 00:30:37 F
427 2285 MORETON ROMAINE M6 3 00:30:38 OMASS F
428 2013 JOLY CHARLOTTE SE 24 00:30:39 F
429 2261 VAN DER VALK REGINA SE 25 00:30:40 BANAMART SAS F
430 2110 BRIEUJ SERGE M3 38 00:30:43 M
431 2773 ELOI-HILAIRE VANESSA M0 19 00:30:43 F
432 2366 SAINT-VAL LILIANE M7 1 00:30:45 OMASS F
433 2696 DUVAL SARAH M3 32 00:30:46 TEAM MADINFORM F
434 2229 MININ MURIEL M2 26 00:30:46 F
435 2035 COURJOL GUY M5 28 00:30:46 M
436 2021 MIRE DENISE M3 33 00:30:46 F
437 2836 THEODORE MICHEL M5 29 00:30:47 M
438 2509 MONZITA RAYMOND M6 20 00:30:48 M
439 2630 MICHALON JOY SE 26 00:30:49 TEAM MADINFORM F
440 2064 SAINT LOUIS SYNDIE M1 25 00:30:50 F
441 2463 DACLINAT MARIE-CLAUDE M3 34 00:30:50 TIGER TEAM 972 F
442 2370 MICHEL HENRIETTE M8 1 00:30:52 OMASS F
443 2184 THOMAS MARIE CA 3 00:30:55 F
444 2582 TOUTAIN CAROLINE M2 27 00:30:59 F
445 2664 ANGAMA MICHELINE M3 35 00:30:59 F
446 2054 RENARD D BORAH JU 8 00:31:02 F
447 2895 ADELAĎDE SANDRINE M1 26 00:31:02 ASCO INTER ATLAS F
448 2548 SUZANNE ARLETTE M4 33 00:31:02 MAIRIE SPORTIVE M
449 2822 ARMOUGON AURELIE M0 20 00:31:02 F
450 2289 DUZEROL ELIANE M6 4 00:31:05 OMASS F
451 2751 LIROT CLAUDINE M3 36 00:31:06 F
452 2486 DERAMPE PALIX FABIENNE M4 22 00:31:07 F
453 2165 LARCHER SILYANE M1 27 00:31:07 F
454 2513 ANELKA FLORENT M5 30 00:31:13 LA POSTE M
455 2721 JOS VALERIE M3 37 00:31:16 F
456 2676 CHEVALLIER CARLINE M3 38 00:31:17 F
457 2745 LABEJOF KORYN M2 28 00:31:19 F
458 3043 GRUETTE STEPHANE M3 39 00:31:20 M
459 2318 JEAN-BAPTISTE LEA SE 27 00:31:21 ASC ZENITH F
460 3054 VESANES TONY M4 34 00:31:25 M
461 2146 RAPON JEAN-MANUEL M5 31 00:31:26 M
462 2888 PIVERT BETTY M1 28 00:31:28 F
463 2243 MORENCY SPARTACUS CATHERINE M1 29 00:31:29 F
464 2244 SPARTACUS STEEVE M2 36 00:31:30 M
465 2270 TERMON COLETTE M4 23 00:31:33 F
466 2753 DOMINIQUE ESTHER M3 39 00:31:33 F
467 2758 BULVER JEAN CHRISTIAN M3 40 00:31:33 M
468 2456 MICHALON DANIELA SE 28 00:31:34 AM DES COUREURS DE FOND F
469 2014 SEMINOR MANUELLA M4 24 00:31:35 F
470 2143 SOLBIAC VANESSA SE 29 00:31:43 F
471 2620 MORESTANE JEAN MARC M4 35 00:31:43 AMCF M
472 2268 MONT REBECCA M1 30 00:31:45 KALANS BEACH CLUB F
473 2267 CATAN ROLANDE M4 25 00:31:46 KALANS BEACH CLUB F
474 2643 AMANT MAIKA M0 21 00:31:46 F
475 2615 FITTE-DUVAL DIDIER M1 21 00:31:48 AIGLON DU LAMENTIN M
476 2152 CHARLOTON GWLADYS M0 22 00:31:49 F
477 2065 DUPROS CARINE M1 31 00:31:51 F
478 2585 EMPIS SANDRA M2 29 00:31:56 F
479 2039 SOUDIN ROSE M3 40 00:31:57 F
480 2925 LAROCHELLE BEATRICE M1 32 00:31:58 F
481 2917 DE THORE FLORENCE SE 30 00:31:58 F
482 2140 MELT BLANDINE M2 30 00:32:00 F
483 2253 OLLIVIER ISABELLE M2 31 00:32:03 F
484 2150 ARMINJON VIRGINIE M3 41 00:32:05 F
485 2223 BALLY ADELINE CA 4 00:32:05 F
486 2107 RIDARCHE BEATRICE M1 33 00:32:09 F
487 2085 LOUISYJOSEPH GEORGETTE M2 32 00:32:10 F
488 2825 THOME ALEXI MI 6 00:32:10 M
489 2724 LALA GERALDINE M1 34 00:32:10 F
490 2824 GUILLAUME KELLY M1 35 00:32:11 F
491 2017 GOLVET MARIE-JEANNISSE SE 31 00:32:12 F
492 2937 DESMONTILS GERARD M3 41 00:32:12 M
493 2923 LERIDIER MYRIAM M2 33 00:32:12 F
494 2910 ARICAT ALFRED M1 22 00:32:13 M
495 2470 PONSAR PALOMA SE 32 00:32:14 TIGER TEAM 972 F
496 2394 ROCHER PHILIPPE M5 32 00:32:15 M
497 2983 MATHIEU JADE JU 9 00:32:19 FOYAL CLUB HANDI SPORT F
498 2166 HUYGHUES DES ETAGES PHILIPPE M2 37 00:32:22 M
499 2236 CHARLERY SOPHIE CA 5 00:32:23 F
500 2845 GERMANY HUGUETTE M7 2 00:32:27 F
501 2982 JEAN STEEVENSON M0 14 00:32:29 FOYAL CLUB HANDI SPORT M
502 2038 ETIENNE SWANN CA 14 00:32:29 M
503 2904 LERIGAB CATHERINE M4 26 00:32:30 F
504 2385 MONTHIEUX MARLENE M4 27 00:32:31 OMASS F
505 2808 ARNERIN DENISE ANICET M3 42 00:32:33 F
506 2119 RUSTI MARIE-NOËLLE M5 13 00:32:35 F
507 2912 BABOT RENE M5 33 00:32:37 M
508 2079 BURNER-PARIZE JANESKY SE 33 00:32:38 F
509 2755 AUGUSTE-CHARLERY ARIELLE SE 34 00:32:42 F
510 2037 PINCEAU PEGYY M2 34 00:32:42 F
511 2049 CHAPUIS GUILLAUME M0 15 00:32:44 M
512 2126 CAYREL JULIEN M0 16 00:32:45 M
513 2242 VETRO CLAUDIE M3 43 00:32:54 F
514 2584 LAURETTA NADIEGE M2 35 00:32:56 F
515 2304 MOUSTIN HENRI M9 1 00:32:57 AMCF M
516 2735 CHRISTIANE SULTER M3 44 00:33:02 F
517 2703 JOSEPH JOANNIFER SE 35 00:33:05 CDAD F
518 2748 SEVEUR CHRISTINE M0 23 00:33:10 TEAM AKTIV GIRLS F
519 2667 PASTEL ERIC M2 38 00:33:10 M
520 2016 URSULET LAURENCE M3 45 00:33:12 F
521 2569 PINARDAUD CHRISTOPHE M3 42 00:33:13 TEAM MADINFORM M
522 2568 PINARDAUD VALERIE M3 46 00:33:13 TEAM MADINFORM F
523 2356 GRACIEN MONIQUE M5 14 00:33:14 F
524 2480 GEORGES JEAN CHARLES M6 21 00:33:14 M
525 2768 LOUIS ALEXANDRE THIERRY M4 36 00:33:15 M
526 3016 DINAL MARIE-LAURE M4 28 00:33:23 F
527 3014 EMMANUEL-EMILE DENISE M4 29 00:33:23 F
528 2786 ETIENNE TAINA M2 36 00:33:24 F
529 2011 HIERSO SIMONE M6 5 00:33:24 F
530 2484 FLERET CHRISTIANE M7 3 00:33:25 NEAN F
531 2214 BRELEUR BERNARD M5 34 00:33:33 M
532 2197 MOUTOUSSAMY MAGALI M4 30 00:33:35 F
533 2109 JACOBY LUCIENNE M4 31 00:33:36 F
534 2709 PECTAGE YVELISE M0 24 00:33:37 F
535 2855 JUPITER KARINE M2 37 00:33:38 F
536 2641 CALIXTE ARNAUD M1 23 00:33:39 M
537 2642 CALIXTE CRISTELE M1 36 00:33:39 F
538 3041 PASTEL JESSICA M0 25 00:33:39 F
539 2575 MONLOUIS MARIE ROSE M4 32 00:33:40 TEAM MADINFORM F
540 2145 DESERT RACHELLE SE 36 00:33:42 F
541 2265 VILLAGEOIS SEBASTIEN SE 29 00:33:42 M
542 2884 BAZABAS MURIELLE M3 47 00:33:48 F
543 2770 BAVARIN PATRICIA M4 33 00:33:51 F
544 2977 ROMULUS KENDY CA 15 00:33:51 FOYAL CLUB HANDI SPORT M
545 2494 EUGENIE CATHY M3 48 00:33:52 GOLDEN STAR F
546 2311 FANON ANNIE’ M5 15 00:33:59 AMCF F
547 2873 JAMES CLAUDE M1 24 00:33:59 EKIP O TOP M
548 2393 BRUDEY FLAVIENNE M7 4 00:34:01 RCVD F
549 2738 RUSTAL DAVID M2 39 00:34:01 M
550 2332 MERT NELLY M3 49 00:34:04 CGOSH F
551 2566 COURLA MICHELE M2 38 00:34:07 TEAM MADINFORM F
552 3088 TINTAR NADIEGE M2 39 00:34:10 MARIE SPORTIVE F
553 2984 BELLEROPHON JOSE M3 43 00:34:13 M
554 2349 OLINY ODILE M2 40 00:34:15 LA CIGOGNE MARTINIQUE F
555 2315 LACAVALERIE YVON M7 2 00:34:18 AMCF M
556 2061 YOKESSA MANDY JU 19 00:34:20 M
557 2059 JUMARIE EVELYNE M3 50 00:34:21 F
558 2640 THIBAUT SYLVIANE M3 51 00:34:23 F
559 3024 BEDACIER THIERRY M3 44 00:34:25 M
560 2705 CAUPENNE FLORENCE M5 16 00:34:25 F
561 2364 PERMANGANT LILIANE M8 2 00:34:27 OMASS F
562 2083 DERIS ARIELLE M5 17 00:34:34 F
563 2161 ROSALIE SYNTIA M2 41 00:34:35 F
564 3076 JANVIER GERARD M4 37 00:34:39 M
565 2999 N ZALA JEAN CLAUDE M4 38 00:34:39 FOYAL CLUB HANDI SPORT M
566 2655 SALOMON ISABELLE M1 37 00:34:51 RANDO PEYI MATNIK F
567 2174 DRU MARIE-CLAUDE M3 52 00:34:52 F
568 3036 PICHI EMMA SE 37 00:34:52 LA SARA F
569 2073 TIBURC€ ALEX DOMINIQE M6 22 00:34:52 M
570 2859 MARIE-LOUISE THOMAS HUGUES M4 39 00:34:53 CATTP POLE NAS M
571 2856 VITALIEN DAVID M1 25 00:34:53 CATTP POLE NAS M
572 2857 CATAN SEBASTIEN M1 26 00:34:54 CATTP POLE NAS M
573 2711 SAINTE ROSE MARIE SAINTE CLAIRETTE M4 34 00:34:54 OSONS DECOUVRIR F
574 2099 DIAS RIBEIRO FERNANDO M5 35 00:34:55 M
575 2098 LOWENSKI NADINE M5 18 00:34:56 F
576 2998 DIJON DJASON SE 30 00:34:56 FOYAL CLUB HANDI SPORT M
577 3000 PLENIERE EMMANUEL SE 31 00:34:56 FOYAL CLUB HANDI SPORT M
578 2249 DIARRA SEYDOU M4 40 00:34:57 CDAD M
579 2367 TARAUD JOSIANE M7 5 00:34:57 OMASS F
580 3048 MARIE NELY NADINE M4 35 00:35:00 FOYER RURAL DU MORNE PITAULT FRANCOIS F
581 2743 CRAMER GWLADYS M0 26 00:35:03 F
582 2653 MARTIAL MALIKA M0 27 00:35:03 F
583 2546 NAGAPIN CORINNE M3 53 00:35:04 MAIRIE SPORTIVE F
584 2113 TOMASI-ACHILLE CHANTAL M4 36 00:35:04 F
585 2521 MOTY JEAN-LOUIS M3 45 00:35:09 TCHIMBE RAID M
586 2907 CLARICIA CYNTHIA M1 38 00:35:10 F
587 2179 POGNON PASCALE M3 54 00:35:10 F
588 2833 MONTABORT DALMA DANNY MI 7 00:35:15 M
589 2816 SERVAL JEAN MARC M4 41 00:35:18 M
590 2290 FARRAUDIERE CHRYSLAINE M6 6 00:35:18 OMASS F
591 2026 POMPUIS SANDRA M3 55 00:35:21 F
592 2632 MAUVOIS NICOLE M3 56 00:35:22 TEAM MADINFORM F
593 2237 ETIENNE JEAN ELIE M2 40 00:35:25 M
594 2195 LAPU ALAIN M5 36 00:35:26 M
595 2028 DASSE MARIE LINE M5 19 00:35:29 F
596 2792 MARLIN-SOLBIAC PATRICIA M4 37 00:35:30 F
597 2193 CASCA NATHALIE M0 28 00:35:31 F
598 3005 PYRAM ELYANE M6 7 00:35:34 F
599 2032 URSULET MYRTHA M4 38 00:35:36 F
600 2803 JALTA-HUYGHUES DES TAGES MURIELLE M2 42 00:35:40 F
601 2787 BATTA REGINE M2 43 00:35:40 F
602 2790 PIGEON MURIEL M1 39 00:35:40 F
603 2952 ALCIDIADE ALINE ANGE M5 20 00:35:44 F
604 2368 TOUSSAINT JACQUELINE M6 8 00:35:45 OMASS F
605 2511 SOUFFLEUR KARINE M0 29 00:35:45 F
606 2337 LALLEMENT BEATRICE M4 39 00:35:46 CLUB MANIKOU ORGANISATIONS F
607 2287 CLAIRICIA JOELLE M5 21 00:35:49 OMASS F
608 2416 TOUSSAINT NADIA SE 38 00:35:50 GOLDEN STAR F
609 2091 LAGRAND LIND M2 44 00:35:50 F
610 2003 MITH SONIA M3 57 00:35:54 F
611 2138 BRUNOIR MARIE-BEATRICE M3 58 00:36:03 F
612 2132 RONDEL MARLENE M5 22 00:36:03 F
613 2388 LAMASINE VALERIE M0 30 00:36:05 OMASS F
614 2220 CHAPUL LAURIANNE SE 39 00:36:06 F
615 2156 VALLADE GABRIEL M0 17 00:36:07 M
616 2227 DESIRLISTE MARIE H LČNE M5 23 00:36:08 F
617 2134 MATHURINA KAREN M0 31 00:36:08 F
618 2390 CRUCHET RENEE M6 9 00:36:10 OMASS F
619 2384 GUACIDE ALFRED M5 37 00:36:11 OMASS M
620 2208 RATIN CAROLE M4 40 00:36:12 F
621 2211 AGIAN LYDIE M3 59 00:36:12 F
622 2844 CORNELUS CHRISTIAN M3 46 00:36:13 M
623 2826 CORNELUS CANDYS CORALYNE MI 1 00:36:13 F
624 2789 POULIN PASCALINE M0 32 00:36:16 ASSOCIATION TIPI F
625 2421 JEAN-JOSEPH PASCALINE M2 45 00:36:18 F
626 2180 EDMOND FRANCETTE M5 24 00:36:21 F
627 2120 BIBAS SYLVIE M5 25 00:36:21 F
628 2562 MOUSSEAU VIRGINIE M2 46 00:36:27 CDAD F
629 2089 MACKO LIVIA M0 33 00:36:29 F
630 2153 RENE ANNICK M1 40 00:36:29 F
631 2372 DEFFIT CHRISTIANE M8 3 00:36:32 OMASS F
632 3074 PIERRE-LOUIS PASCALE M4 41 00:36:32 F
633 2371 DEFFIT JULIEN M9 2 00:36:34 OMASS M
634 2144 SOLBIAC GENEVIEVE M5 26 00:36:34 F
635 2128 LISE ANNICK M4 42 00:36:35 F
636 2103 GERGEIN GISETTE M3 60 00:36:40 F
637 2023 MIREDIN VALERIE M2 47 00:36:40 F
638 2440 BAZIERE LEA SE 40 00:36:42 CDAD F
639 2278 YOYOTTE DOMINIQUE M3 61 00:36:43 MADA FIT SWE F
640 3060 NIRDE Marie Joseph M6 23 00:36:44 M
641 2737 CADIGNAN SANDRA M3 62 00:36:44 F
642 2858 AUGUSTINE AUDE SE 41 00:36:44 CATTP POLE NAS F
643 2818 COURJOL DENISE M4 43 00:36:46 F
644 3071 AGARANGE LOUIS M3 47 00:36:47 MAIRIE SPORTIVE M
645 2547 MIDELTON ROSE HELENE M6 10 00:36:47 MAIRIE SPORTIVE F
646 2893 LATOUR BENJAMIN M4 42 00:36:48 CDAD M
647 2407 HAUTEVILLE LAURIANNE M4 44 00:36:48 F
648 2986 CAGE DOMINIQUE M5 27 00:36:49 F
649 2401 JOACHIM MARIE-GEOFFROY M3 63 00:36:50 TEAM AKTIV GIRLS F
650 2841 GIRIER_DUFOURNIER LUDOVIC MI 8 00:36:52 M
651 2996 SORNIN DYLAN CA 16 00:36:52 FOYAL CLUB HANDI SPORT M
652 2829 HUMBLOT EDWIGE LUCRESE M1 41 00:36:52 F
653 2387 ROVILLON FLORA M6 11 00:36:55 OMASS F
654 2648 DEFORT DANIELLE M4 45 00:37:06 F
655 2090 MACKO BEATR M2 48 00:37:09 F
656 2288 DELIN LUCIEN M8 2 00:37:12 OMASS M
657 2706 CONCY J MIMA M4 46 00:37:13 F
658 2280 BONOSE EVELINE M5 28 00:37:19 OMASS F
659 2434 BRITHMER CLAUDE M3 48 00:37:20 M
660 2647 MELICINE SYLVIE M3 64 00:37:22 F
661 2955 FONDELOT MICHELINE M3 65 00:37:26 MADA FIT S.W.E. F
662 2474 TRIME SEBASTIEN ES 6 00:37:26 TIGER TEAM 972 M
663 2576 MOUTACHI ROSELINE M0 34 00:37:32 TEAM MADINFORM F
664 2158 PRUVOT VAL RIE M5 29 00:37:33 F
665 2731 MILOCH LUCIENNE M4 47 00:37:38 TCHIMBE RAID F
666 3065 BAROUT BRUNO M5 38 00:37:40 M
667 2199 THALY SABRINA M1 42 00:37:41 F
668 2831 DINACAROUPIN LEA CLEMENCE M4 48 00:37:42 F
669 3085 SCHENIN-KING MICHELLE M6 24 00:37:46 M
670 2392 BRUDEY EUGENE LOUIS M8 3 00:37:52 RCVD M
671 2031 BRIANTO PATRICIA M2 49 00:37:53 F
672 2148 RANCELLI OLIVIA SE 42 00:37:56 F
673 2147 CHATENAY RIVAUDAY BEATRICE M4 49 00:37:56 F
674 2701 CHEVALLIER CATHERINE M3 66 00:37:57 F
675 2628 SONGNE PETRICIEN TANIA M2 50 00:37:58 TEAM MADINFORM F
676 2627 BOUDAUD KAREN M2 51 00:37:58 TEAM MADINFORM F
677 2747 VENITE GISČLE M2 52 00:38:02 F
678 2088 SABIN LEĎLA M0 35 00:38:02 F
679 2847 SAINT LOUIS AUGUSTIN REGINE M3 67 00:38:07 F
680 2218 VČNUS JACQUELINE M5 30 00:38:08 F
681 2139 NOGRET PATRICIA M4 50 00:38:08 F
682 2778 BOULOIS MARC M3 49 00:38:09 M
683 2131 SAINT- AIM ST PHANIE ALICE M0 36 00:38:12 F
684 2205 MEGUENNI TANI ZOUBIDA M4 51 00:38:20 F
685 2677 VIRGAL MICHELINE M1 43 00:38:23 CDAD F
686 2815 VENUS MAGUY M5 31 00:38:26 F
687 2078 MAGIT MARIE ELISABETH M4 52 00:38:29 F
688 2216 CINNA MAX M2 41 00:38:30 M
689 2763 RISKWAIT THERESE M7 6 00:38:31 F
690 2659 THERESE MANUELLA M3 68 00:38:35 F
691 2137 NIASME NATHALIE M4 53 00:38:42 F
692 2019 CAUMARTIN CORINE M2 53 00:38:51 F
693 2718 MARIGNAN SUZEL M5 32 00:38:55 F
694 2292 JANNAS JULIE M7 7 00:38:58 OMASS F
695 2362 NEDRA LUC M6 25 00:39:00 OMASS M
696 2000 HUGGINS MARY SE 43 00:39:08 F
697 2001 RANC MICK M3 50 00:39:09 M
698 2921 FRANCOIS LUBIN MAGALIE M3 69 00:39:11 F
699 2911 AVRILA NADIEGE M3 70 00:39:11 F
700 2030 CHARET GUYLENE M3 71 00:39:13 F
701 2232 CONSTANT DOMINIQUE M4 54 00:39:13 F
702 2788 DONDON SYLVIANE M2 54 00:39:14 F
703 2048 VALLIN JESSY SE 44 00:39:19 F
704 2819 ROGES JACQUELINE M3 72 00:39:20 F
705 2817 LIMERY MARTHE M6 12 00:39:20 F
706 2380 BELLIARD JACQUELINE M6 13 00:39:23 OMASS F
707 2282 CABSOIT CLAUDIE M6 14 00:39:24 OMASS F
708 2588 BONHEUR RITA M5 33 00:39:24 CDAD F
709 2433 CIDALISE-MONTAISE MURIEL M3 73 00:39:25 CDAD F
710 2273 LABONNE ALEXIA SE 45 00:39:25 F
711 3056 HONORE CAROLE M2 55 00:39:32 F
712 2828 SAINTVILLE GEORGES M5 39 00:39:34 M
713 2989 CHOPIN CELIA MI 9 00:39:34 FOYAL CLUB HANDI SPORT M
714 3057 LOUIS-ALEXANDRE ERIC M3 51 00:39:34 M
715 2994 BRAVO YSANA MI 2 00:39:34 FOYAL CLUB HANDI SPORT F
716 2908 DALMAT LYDIA M2 56 00:39:35 F
717 2861 JUMINER JOEL M1 27 00:39:36 CATTP POLE NAS M
718 2734 DORLEAC VAL RIE M1 44 00:39:44 F
719 2104 RICHEFAL RALPH M3 52 00:39:45 M
720 2343 RICHEFAL CORINE M2 57 00:39:45 GOLDEN STAR F
721 2135 HEMART CATHERINE M6 15 00:39:50 F
722 2727 CAREL EMMILIENNE M4 55 00:39:54 F
723 2777 RAMEAU NADIČGE M3 74 00:39:58 F
724 3051 MAC DOOM PHILIPPE M2 42 00:40:03 M
725 2176 RONDEL PASCALE M0 37 00:40:04 F
726 2707 CONCY CHARLES-HENRI M4 43 00:40:05 M
727 2346 CIZO CARMEN M2 58 00:40:06 KALANS BEACH CLUB (KBC) F
728 2225 BAVAY JOANIE M5 34 00:40:06 F
729 2224 BAVAY MATHILDE JU 10 00:40:08 F
730 2969 DONGUE JOEL M4 44 00:40:10 M
731 2495 MARCELIN OLIVIER M3 53 00:40:13 M
732 2284 CRAMER PAULETTE M7 8 00:40:14 OMASS F
733 2592 BAKER RITA M0 38 00:40:17 GOLDEN STAR F
734 2020 JEAN-BAPTISTE ISABELLE M4 56 00:40:17 F
735 2490 HOUVION FLORENCE M3 75 00:40:22 F
736 2378 SYLVIUS JOCELYNE M7 9 00:40:22 OMASS F
737 2124 THALY MARIE-MYRIAM M1 45 00:40:29 F
738 3010 BRANCHE CHRISTINE M4 57 00:40:29 F
739 2322 BERTHOLLE SABINE M3 76 00:40:31 ASPTT MARTINIQUE F
740 2240 MAURICE YANIS M3 77 00:40:33 F
741 2238 MAURICE MARIE CLAUDE M3 78 00:40:33 F
742 2802 ETIENNE MAGALI M5 35 00:40:36 F
743 2658 SALINIERE HO SANDRA M2 59 00:40:37 F
744 2102 JEAN-JOSEPH MAËL CA 6 00:40:37 F
745 2503 HUYGUES-BEAUFOND PEGGY M1 46 00:40:43 GOLDEN STAR F
746 2200 COUTEPEROUMAL LYVIA M0 39 00:40:45 F
747 2402 MONERO PEGGY M2 60 00:40:47 TEAM EDF F
748 2226 MARTIN SUZY M5 36 00:40:47 F
749 3025 LAMARTINIERE YOLANDE M7 10 00:40:48 F
750 2264 LEZIN FRANCIS M3 54 00:40:50 BANAMART SAS M
751 2275 DROUIN LILIANE M4 58 00:40:52 LA POSTE F
752 2649 MACHER ALAIN M7 3 00:40:54 M
753 2291 GUSTO EUGENIE MONIQUE M7 11 00:40:55 OMASS F
754 2625 ELIE GLAWDYS M1 47 00:40:56 TEAM MADINFORM F
755 2369 VIGILANT YVONNE M6 16 00:40:57 OMASS F
756 2055 RENARD THIERRY M4 45 00:40:59 M
757 2274 DUCTEIL MURIELLE M4 59 00:41:03 LA POSTE F
758 2699 ORCINET JOCELYNE M4 60 00:41:06 TEAM MADINFORM F
759 2373 CADET PETIT MICHELINE M3 79 00:41:08 F
760 2255 NADIR NATHALIE M2 61 00:41:12 F
761 2496 MARCELIN VAL RIE M3 80 00:41:13 F
762 2756 GLAUDON MICHELINE M4 61 00:41:14 F
763 2068 RAMIER JOËLLE M4 62 00:41:22 F
764 2168 MARIE LOUISE DIANA M1 48 00:41:24 F
765 2780 OCTAVIUS B ATRICE M4 63 00:41:35 F
766 2084 GABRIEL PAMELA M2 62 00:41:37 F
767 2870 JALTA KAREN SE 46 00:41:39 CATTP POLE NAS F
768 2609 THOMASI JOSIANE M7 12 00:41:46 F
769 2008 GERALD MARYSE M5 37 00:41:51 F
770 2063 SAINT LOUIS KELLY JU 11 00:41:54 F
771 2563 ETILE JEAN-MARC M3 55 00:41:55 M
772 2375 DUBOYER MARIE-JOSEE M7 13 00:41:56 OMASS F
773 2918 DE THORE JASMINE JU 12 00:42:12 F
774 2919 DE THORE STEPHEN M2 43 00:42:12 M
775 2813 BELIN LOUIS_GEORGE M7 4 00:42:20 M
776 2279 BOLO LAURENT M4 46 00:42:30 OMASS M
777 2550 GABOURG MARTA NOELLE M6 17 00:42:32 MAIRIE SPORTIVE F
778 2898 MART PATRI M5 40 00:42:37 M
779 2172 JOURDAN MARIE-ROSE M3 81 00:42:40 F
780 2281 BUISSON MONIQUE M5 38 00:42:50 OMASS F
781 2376 PENDANT PAPIRAS JULIETTE SOPHIE M7 14 00:42:50 OMASS F
782 2010 THUNY G RALDINE M3 82 00:42:56 F
783 2779 BOULOIS ALEXANDRA M2 63 00:42:56 F
784 2913 BIRON ELIANE M4 64 00:42:56 F
785 2215 SINSEAU HUGUETTE M6 18 00:42:57 F
786 2702 BANE JULY CA 7 00:42:57 F
787 2920 EMIDOF AUDREY SE 47 00:42:57 F
788 2112 MINATI MARIE M1 49 00:42:58 F
789 2071 BINET KATHLEEN SE 48 00:42:58 F
790 2942 MILOME JOCELYN M3 56 00:42:59 M
791 2033 LAPRET CHRISTIANE M4 65 00:42:59 F
792 2931 RULLON NADIA M1 50 00:42:59 F
793 2928 PENAVERE ALEX M4 47 00:42:59 M
794 2339 GOLBRY CHRISTEL M3 83 00:43:00 CSLG RUN972 F
795 3007 JEAN-ALEXIS PHILIPPE M5 41 00:43:04 M
796 2396 SLABIAK LARA M2 64 00:43:07 SLABIAK F
797 2217 GERVAIS MURIEL M1 51 00:43:15 F
798 2358 LADA ROBERTE M6 19 00:43:27 OMASS F
799 2594 MORIN MYRIAM M1 52 00:43:30 F
800 2164 BLANCHETIERE PIERRE M2 44 00:43:31 M
801 2726 RIJO CHRISTIAN M3 57 00:43:32 M
802 2725 LOWINSKY-RIJO CHANTAL M2 65 00:43:33 F
803 2638 MARIE LAURENCE M4 66 00:43:41 F
804 2354 MAVINGA MARC M1 28 00:43:42 MADININA ATHLETISME M
805 2365 PETITOT